Aérodrome :
LOGIN :

S'inscrire | Disclaimer

   EN    FR    IT 

 










Légende :    VFR   VFR Marginal   IFR   IFR Intensif   IFR Très Intensif
Visi : 
Plafond : 
>= 8 km
>= 3000ft
5 à 8 km
1000 à 3000 ft
1500m à 5 km
500 à 1000 ft
800 à 1500m
200 à 500 ft
< 800m
< 200 ft
Symboles :   Orages  Brouillard  Fortes neiges  Fortes précipitations  Vent > 20 kt
SIGMETs :   Divers  Orages  Givrage  Turbulence  Onde Orograph.  Cendres Volcan.






- Altitude de l'aérodrome : 645 ft
- Code IATA : DLE


LFGJ - Dole Tavaux

DERNIER METAR :
  • 272230Z AUTO 19021KT 7000 -RA FEW026/// BKN037/// OVC045/// ///TCU 08/07 Q1008

METARs EXPIRÉS :
  • 272200Z AUTO 19020KT 9999 -RA BKN044/// OVC052/// ///CB 09/07 Q1007
  • 272130Z AUTO 19019KT CAVOK 09/06 Q1008
  • 272100Z AUTO 18019KT 9999 OVC048 09/06 Q1008
  • 272030Z AUTO 19019KT 9999 BKN046 OVC054 08/06 Q1008
  • 272000Z AUTO 19018KT 9999 OVC048/// ///TCU 08/06 Q1009

TAF TAF LFGJ
Valide du 27 à 15h jusqu'au 28 à 00h UTC


271401Z 2715/2724 20014KT 9999 FEW015 OVC045
TEMPO 2715/2719 19015G25KT 5000 RA
BECMG 2719/2721 19020G33KT



MET'MAP, la Météo Aéronautique d'un coup d'oeil ! - Copyright ORBIFLY Décembre 2007 - Disclaimer

ORBIFLY MET'MAP TEAM :

Programmation & Développement : Alexandra Zaïnal
Sur une idée originale de : Baudouin d'Aumeries
Assistance à la programmation : Marc-Olivier Méhu
Soutien technique & logistique : Manuel Goepfert

Contact : metmap@orbifly.com




SOURCES & CREDITS :

   NOAA